CHW2 weather

Orangeville/Headwaters Healthcare Centre Heliport
Orangeville, Ontario, Canada

Public forecast

Using degrees Celsius for public forecast. Weather courtesy of forecast.io.

Closest aviation weather report (METAR) to Orangeville/Headwaters Healthcare Centre Heliport

Closest report is CFB Borden, 22.3 nm (41.2 km) NNE. Retrieved 2019/10/16 23:00 UTC (34 minutes ago):

CYBN 162300Z AUTO 22006KT 9SM FEW034 FEW040 SCT049 OVC057 08/06 A2947 RMK SLP984

Closest aviation forecast (TAF) to Orangeville/Headwaters Healthcare Centre Heliport

Closest forecast is CFB Borden, 22.3 nm (41.2 km) NNE. Retrieved 2019/10/16 18:33 UTC (5 hours ago):

TAF TAF CYBN 161730Z 1618/1706 19012KT P6SM SCT015 OVC030 TEMPO 1618/1701 5SM -RA -DZ BR BKN015 OVC025 FM170100 VRB03KT 5SM BR FEW010 BKN020 TEMPO 1701/1706 2SM BR BKN010 OVC020 RMK FCST BASED ON AUTO OBS NXT FCST BY 170000Z